Time;durP1;ratioP1;P1;durP2;ratioP2;P2;SDS_P1;SDS_P2;PMS_P1;PMS_P2;Temp;Humidity;BMP_temperature;BMP_pressure;BME280_temperature;BME280_humidity;BME280_pressure;Samples;Min_cycle;Max_cycle;Signal;HPM_P1;HPM_P2
2021/04/30 00:00:50;;;;;;;13.93;10.73;;;;;;;12.54;75.54;100402.50;5010071;28;20025;-73
2021/04/30 00:03:17;;;;;;;14.00;9.88;;;;;;;12.49;75.36;100401.50;5011794;28;20108;-79
2021/04/30 00:05:43;;;;;;;19.50;11.70;;;;;;;12.37;75.95;100397.69;5011398;28;20026;-77
2021/04/30 00:08:09;;;;;;;23.02;13.95;;;;;;;12.07;76.38;100364.91;5011407;28;20026;-79
2021/04/30 00:10:34;;;;;;;25.88;14.73;;;;;;;12.15;76.84;100401.41;5009926;28;20477;-76
2021/04/30 00:13:00;;;;;;;17.75;10.55;;;;;;;12.04;77.60;100408.84;5010274;28;20097;-75
2021/04/30 00:15:25;;;;;;;17.83;11.23;;;;;;;12.03;77.27;100401.91;5010652;28;20034;-77
2021/04/30 00:17:51;;;;;;;17.17;10.75;;;;;;;12.06;77.39;100394.25;5010613;28;20037;-76
2021/04/30 00:20:17;;;;;;;40.55;20.85;;;;;;;11.99;77.68;100387.13;5023326;28;20531;-77
2021/04/30 00:22:43;;;;;;;43.40;21.92;;;;;;;12.06;77.53;100403.69;5024375;28;20034;-74
2021/04/30 00:25:09;;;;;;;16.45;11.15;;;;;;;11.97;77.96;100404.31;5010570;28;20018;-78
2021/04/30 00:27:35;;;;;;;13.38;9.88;;;;;;;11.96;78.19;100402.53;5011056;28;20034;-72
2021/04/30 00:30:00;;;;;;;33.65;18.65;;;;;;;12.07;77.59;100406.31;5009858;28;20488;-73
2021/04/30 00:32:26;;;;;;;46.92;23.90;;;;;;;11.95;77.54;100390.41;5011180;28;20034;-82
2021/04/30 00:34:51;;;;;;;16.40;11.07;;;;;;;11.98;78.03;100396.56;5009884;28;20106;-78
2021/04/30 00:37:17;;;;;;;35.10;16.98;;;;;;;11.90;78.50;100397.16;5010277;28;20034;-77
2021/04/30 00:39:43;;;;;;;76.25;35.97;;;;;;;11.96;78.37;100392.19;5009831;28;20115;-74
2021/04/30 00:42:08;;;;;;;15.88;10.07;;;;;;;11.94;77.77;100384.34;5007626;28;20030;-81
2021/04/30 00:44:34;;;;;;;14.30;9.88;;;;;;;11.98;77.67;100386.22;5013663;28;20580;-78
2021/04/30 00:47:00;;;;;;;62.08;29.52;;;;;;;12.03;77.56;100396.72;5014497;28;20381;-78
2021/04/30 00:49:25;;;;;;;27.98;17.02;;;;;;;12.11;77.01;100379.72;5014328;28;20087;-91
2021/04/30 00:51:51;;;;;;;20.70;12.80;;;;;;;12.33;76.48;100392.41;5012791;28;20495;-75
2021/04/30 00:54:18;;;;;;;13.25;9.43;;;;;;;12.23;75.83;100361.06;5014288;28;20061;-86
2021/04/30 00:56:43;;;;;;;49.58;32.40;;;;;;;12.38;75.46;100383.91;5013133;28;20060;-74
2021/04/30 00:59:09;;;;;;;14.57;10.55;;;;;;;12.57;75.04;100397.38;5014935;28;20046;-78
2021/04/30 01:01:35;;;;;;;14.48;9.20;;;;;;;12.16;76.35;100416.06;5014664;28;20030;-78
2021/04/30 01:04:01;;;;;;;12.55;9.82;;;;;;;12.06;77.16;100412.34;5014574;28;20022;-86
2021/04/30 01:06:27;;;;;;;17.25;8.77;;;;;;;12.08;76.85;100402.03;5014046;28;20041;-81
2021/04/30 01:08:53;;;;;;;14.57;8.85;;;;;;;12.30;76.06;100398.38;5014089;28;20022;-87
2021/04/30 01:11:18;;;;;;;14.50;8.65;;;;;;;12.39;75.38;100408.13;5013247;28;20507;-78
2021/04/30 01:13:44;;;;;;;14.90;8.80;;;;;;;12.16;75.14;100356.53;5014444;28;20034;-77
2021/04/30 01:16:09;;;;;;;12.88;8.90;;;;;;;12.40;75.38;100369.31;5013125;28;20018;-71
2021/04/30 01:18:46;;;;;;;15.57;9.20;;;;;;;12.60;74.52;100359.50;5014693;28;20109;-69
2021/04/30 01:21:12;;;;;;;337.42;206.38;;;;;;;12.88;73.22;100377.47;5014269;28;20030;-72
2021/04/30 01:23:51;;;;;;;31.02;21.40;;;;;;;12.59;74.10;100385.38;5028923;28;20532;-71
2021/04/30 01:26:18;;;;;;;16.60;11.57;;;;;;;12.67;73.95;100370.88;5014114;28;20544;-72
2021/04/30 01:28:45;;;;;;;15.23;9.73;;;;;;;12.70;73.96;100378.75;5031809;28;20415;-72
2021/04/30 01:31:11;;;;;;;27.58;16.67;;;;;;;12.62;74.12;100363.03;5030589;28;20049;-71
2021/04/30 01:33:37;;;;;;;14.00;9.43;;;;;;;12.19;75.71;100374.75;5030751;28;20080;-74
2021/04/30 01:36:03;;;;;;;22.02;12.60;;;;;;;12.22;75.89;100358.44;5030695;28;20025;-71
2021/04/30 01:38:29;;;;;;;20.85;11.82;;;;;;;12.41;75.44;100371.06;5030214;28;20045;-75
2021/04/30 01:40:55;;;;;;;13.60;9.88;;;;;;;12.61;74.75;100350.00;5031523;28;20583;-75
2021/04/30 01:43:22;;;;;;;33.60;17.42;;;;;;;12.41;73.49;100276.97;5031352;28;20506;-74
2021/04/30 01:45:58;;;;;;;25.38;14.25;;;;;;;12.61;73.80;100350.00;5015146;28;20025;-71
2021/04/30 01:48:29;;;;;;;17.67;10.02;;;;;;;12.29;75.21;100361.25;5031194;28;20033;-75
2021/04/30 01:50:56;;;;;;;18.15;10.15;;;;;;;12.16;76.24;100356.53;5031306;28;20065;-73
2021/04/30 01:53:24;;;;;;;13.82;9.55;;;;;;;12.15;76.35;100352.22;5031234;28;20030;-74
2021/04/30 01:55:53;;;;;;;12.43;9.20;;;;;;;11.98;76.94;100359.50;5016623;28;22189;-72
2021/04/30 01:58:20;;;;;;;31.38;17.52;;;;;;;12.00;76.75;100367.28;5029181;28;20410;-71
2021/04/30 02:00:46;;;;;;;38.65;19.75;;;;;;;11.81;77.17;100359.84;5013908;28;20034;-70
2021/04/30 02:03:12;;;;;;;69.15;31.80;;;;;;;11.87;77.34;100353.94;5025991;28;20026;-70
2021/04/30 02:05:40;;;;;;;27.08;14.70;;;;;;;11.76;77.39;100334.66;5010017;28;20049;-71
2021/04/30 02:08:07;;;;;;;19.33;12.10;;;;;;;11.73;77.68;100348.38;5011621;28;20036;-73
2021/04/30 02:10:34;;;;;;;174.25;72.18;;;;;;;11.78;77.70;100346.81;5013461;28;20026;-75
2021/04/30 02:13:00;;;;;;;36.38;18.52;;;;;;;11.63;77.37;100317.91;5013519;28;20064;-72
2021/04/30 02:15:28;;;;;;;14.38;9.57;;;;;;;11.65;77.69;100373.09;5013361;28;20061;-74
2021/04/30 02:17:54;;;;;;;15.68;9.32;;;;;;;10.90;81.49;100384.47;5012599;28;20022;-75
2021/04/30 02:20:21;;;;;;;19.30;11.95;;;;;;;10.80;81.97;100375.53;5012205;28;20084;-75
2021/04/30 02:22:47;;;;;;;11.43;9.32;;;;;;;10.88;82.11;100405.09;5013390;28;20052;-73
2021/04/30 02:25:15;;;;;;;15.65;9.77;;;;;;;10.55;83.03;100404.78;5013474;28;20021;-71
2021/04/30 02:27:42;;;;;;;17.65;10.50;;;;;;;10.69;82.66;100419.03;5013459;28;20030;-73
2021/04/30 02:30:28;;;;;;;11.60;8.88;;;;;;;10.80;81.32;100415.16;5013147;28;20033;-71
2021/04/30 02:32:55;;;;;;;11.93;8.90;;;;;;;10.62;82.30;100417.97;4994546;28;20100;-74
2021/04/30 02:35:26;;;;;;;11.13;8.80;;;;;;;10.55;81.88;100391.88;5010589;28;20034;-75
2021/04/30 02:37:52;;;;;;;12.05;8.93;;;;;;;10.44;82.07;100391.47;5010716;28;20137;-74
2021/04/30 02:40:21;;;;;;;13.43;9.25;;;;;;;10.83;81.90;100422.13;5010621;28;20033;-71
2021/04/30 02:42:47;;;;;;;15.80;9.25;;;;;;;11.15;80.66;100422.34;5010504;28;20166;-73
2021/04/30 02:45:15;;;;;;;14.50;8.95;;;;;;;11.29;79.74;100423.69;5010307;28;20563;-72
2021/04/30 02:47:42;;;;;;;15.55;8.95;;;;;;;11.33;79.51;100410.03;5010574;28;20044;-72
2021/04/30 02:50:08;;;;;;;14.00;8.77;;;;;;;11.58;79.28;100408.25;4996487;28;20500;-72
2021/04/30 02:52:34;;;;;;;19.35;9.68;;;;;;;11.64;77.82;100372.25;5010693;28;20124;-75
2021/04/30 02:55:00;;;;;;;35.22;17.48;;;;;;;12.05;76.73;100405.41;4994077;28;20117;-73
2021/04/30 02:57:30;;;;;;;15.95;10.07;;;;;;;12.17;76.57;100404.03;5010076;28;20037;-71
2021/04/30 02:59:55;;;;;;;743.33;332.08;;;;;;;12.27;76.00;100398.28;5010163;28;20526;-74
2021/04/30 03:02:21;;;;;;;32.88;16.15;;;;;;;12.31;75.93;100400.09;5010243;28;20026;-74
2021/04/30 03:04:46;;;;;;;15.77;9.43;;;;;;;12.40;75.34;100395.22;5012403;28;20034;-74
2021/04/30 03:07:12;;;;;;;271.75;109.35;;;;;;;12.54;74.88;100397.31;5012396;28;20080;-73
2021/04/30 03:09:37;;;;;;;40.92;19.35;;;;;;;12.48;75.08;100394.56;5027120;28;20038;-75
2021/04/30 03:12:03;;;;;;;23.50;12.57;;;;;;;12.46;75.26;100379.84;5012265;28;20022;-74
2021/04/30 03:14:29;;;;;;;12.27;9.18;;;;;;;12.59;74.87;100391.41;5012461;28;20029;-73
2021/04/30 03:16:54;;;;;;;21.60;12.63;;;;;;;12.60;74.49;100410.44;5012195;28;20033;-75
2021/04/30 03:19:20;;;;;;;13.95;9.40;;;;;;;11.38;79.63;100454.16;5012447;28;20176;-74
2021/04/30 03:21:46;;;;;;;15.05;9.40;;;;;;;11.11;80.91;100413.63;5012147;28;20068;-71
2021/04/30 03:24:11;;;;;;;15.02;10.20;;;;;;;11.35;80.81;100432.47;5026821;28;20060;-74
2021/04/30 03:26:37;;;;;;;18.88;11.27;;;;;;;11.50;79.84;100401.94;5011803;28;20041;-71
2021/04/30 03:29:03;;;;;;;50.25;25.70;;;;;;;11.88;79.17;100420.38;5012152;28;20041;-75
2021/04/30 03:31:29;;;;;;;14.57;9.98;;;;;;;11.76;79.37;100418.31;5011210;28;20087;-74
2021/04/30 03:33:55;;;;;;;14.50;10.48;;;;;;;11.63;79.40;100423.94;5012189;28;20109;-74
2021/04/30 03:36:21;;;;;;;16.35;10.48;;;;;;;11.84;78.79;100448.69;5012253;28;20117;-71
2021/04/30 03:38:48;;;;;;;14.48;10.40;;;;;;;11.38;80.35;100458.44;5012096;28;20126;-72
2021/04/30 03:41:14;;;;;;;15.50;10.48;;;;;;;11.52;80.05;100440.81;5011645;28;20037;-73
2021/04/30 03:43:40;;;;;;;18.67;14.65;;;;;;;11.32;80.84;100484.94;5012108;28;20056;-71
2021/04/30 03:46:05;;;;;;;14.43;10.18;;;;;;;10.73;82.48;100435.53;5026501;28;20038;-74
2021/04/30 03:48:31;;;;;;;14.38;10.57;;;;;;;11.22;81.40;100478.59;5011515;28;20030;-71
2021/04/30 03:50:57;;;;;;;12.48;9.82;;;;;;;11.37;80.62;100490.28;5026855;28;20554;-72
2021/04/30 03:53:23;;;;;;;13.60;9.35;;;;;;;11.26;81.14;100475.28;5015831;28;20031;-72
2021/04/30 03:55:49;;;;;;;15.20;10.65;;;;;;;11.12;82.23;100473.94;5009939;28;20034;-76
2021/04/30 03:58:14;;;;;;;16.17;10.75;;;;;;;11.03;83.06;100490.00;5012374;28;20050;-74
2021/04/30 04:00:40;;;;;;;14.20;11.25;;;;;;;11.24;82.47;100492.44;5011859;28;20041;-71
2021/04/30 04:03:05;;;;;;;14.70;11.05;;;;;;;11.33;81.76;100495.34;5011773;28;20397;-74
2021/04/30 04:05:31;;;;;;;15.52;9.85;;;;;;;11.52;81.20;100495.97;5011795;28;20068;-72
2021/04/30 04:07:56;;;;;;;18.83;10.75;;;;;;;11.60;80.58;100489.34;5010835;28;20550;-74
2021/04/30 04:10:22;;;;;;;14.68;10.20;;;;;;;11.69;80.16;100501.69;5011793;28;20104;-72
2021/04/30 04:12:47;;;;;;;16.00;11.15;;;;;;;11.63;80.41;100496.31;5010495;28;20025;-72
2021/04/30 04:15:13;;;;;;;16.92;11.48;;;;;;;11.75;80.07;100501.91;5012300;28;20022;-72
2021/04/30 04:17:38;;;;;;;16.83;11.18;;;;;;;11.63;79.40;100473.06;5012215;28;20073;-75
2021/04/30 04:20:05;;;;;;;15.88;10.43;;;;;;;11.58;80.35;100528.91;5016172;28;20088;-71
2021/04/30 04:22:35;;;;;;;14.90;10.15;;;;;;;11.30;82.04;100546.03;5015773;28;20492;-74
2021/04/30 04:25:01;;;;;;;15.48;9.85;;;;;;;11.40;82.04;100530.03;5015707;28;20022;-72
2021/04/30 04:27:27;;;;;;;15.02;11.07;;;;;;;11.37;80.78;100470.47;5015952;28;20099;-74
2021/04/30 04:29:52;;;;;;;14.70;10.68;;;;;;;11.89;80.28;100533.38;5015526;28;20057;-76
2021/04/30 04:32:18;;;;;;;15.00;10.57;;;;;;;12.07;79.69;100529.66;5015748;28;20090;-72
2021/04/30 04:34:44;;;;;;;13.60;10.25;;;;;;;12.18;79.30;100545.53;5015665;28;20038;-71
2021/04/30 04:37:09;;;;;;;18.08;11.10;;;;;;;11.73;81.65;100560.44;5015776;28;20025;-73
2021/04/30 04:39:35;;;;;;;13.73;10.25;;;;;;;11.78;81.65;100527.84;5015403;28;20025;-71
2021/04/30 04:42:02;;;;;;;14.30;10.38;;;;;;;12.06;80.64;100533.97;5014325;28;20026;-71
2021/04/30 04:44:31;;;;;;;13.32;10.07;;;;;;;12.23;79.95;100543.97;5015680;28;20037;-72
2021/04/30 04:46:57;;;;;;;16.57;11.83;;;;;;;12.43;79.59;100544.59;5014609;28;20030;-75
2021/04/30 04:49:23;;;;;;;13.50;9.68;;;;;;;12.50;78.83;100535.28;5015581;28;20029;-74
2021/04/30 04:51:48;;;;;;;84.03;36.45;;;;;;;12.60;77.94;100552.88;5015489;28;20031;-72
2021/04/30 04:54:14;;;;;;;17.13;11.13;;;;;;;12.65;78.63;100533.16;5015162;28;20057;-75
2021/04/30 04:56:39;;;;;;;14.38;10.93;;;;;;;12.38;78.57;100484.03;5014203;28;20041;-74
2021/04/30 04:59:05;;;;;;;17.20;11.55;;;;;;;12.79;78.75;100537.00;5015191;28;20065;-71
2021/04/30 05:01:30;;;;;;;38.10;16.98;;;;;;;12.93;78.88;100549.50;5015087;28;20428;-72
2021/04/30 05:03:55;;;;;;;14.75;10.07;;;;;;;12.99;77.67;100548.81;5015059;28;20058;-71
2021/04/30 05:06:21;;;;;;;14.85;10.23;;;;;;;13.13;76.86;100544.00;5014851;28;20495;-71
2021/04/30 05:08:46;;;;;;;18.30;11.35;;;;;;;13.21;77.28;100547.69;5015054;28;20036;-74
2021/04/30 05:11:12;;;;;;;19.83;11.48;;;;;;;13.25;77.23;100549.53;5015637;28;20107;-74
2021/04/30 05:13:38;;;;;;;26.40;14.55;;;;;;;13.38;75.98;100540.38;5014370;28;20034;-73
2021/04/30 05:16:04;;;;;;;33.95;17.00;;;;;;;13.38;76.70;100545.56;5015028;28;20403;-71
2021/04/30 05:18:30;;;;;;;18.52;11.88;;;;;;;13.46;76.36;100530.22;5010809;28;20496;-73
2021/04/30 05:20:57;;;;;;;33.97;18.90;;;;;;;13.57;76.00;100539.16;5014543;28;20038;-71
2021/04/30 05:23:23;;;;;;;18.30;11.18;;;;;;;13.23;77.33;100549.50;5013106;28;20480;-71
2021/04/30 05:25:52;;;;;;;16.00;10.60;;;;;;;13.46;77.33;100551.84;5003894;28;20505;-75
2021/04/30 05:28:17;;;;;;;13.52;10.50;;;;;;;13.72;77.19;100539.56;4994365;28;20121;-73
2021/04/30 05:30:43;;;;;;;16.90;11.48;;;;;;;13.87;77.46;100526.06;5015227;28;20112;-72
2021/04/30 05:33:09;;;;;;;14.57;10.45;;;;;;;13.73;77.24;100530.94;5013849;28;20034;-73
2021/04/30 05:35:34;;;;;;;15.57;11.15;;;;;;;13.96;77.08;100548.78;5016105;28;20026;-71
2021/04/30 05:38:00;;;;;;;17.80;11.43;;;;;;;14.01;77.29;100546.31;5012891;28;20044;-73
2021/04/30 05:40:26;;;;;;;23.92;13.15;;;;;;;14.12;75.86;100551.72;5014039;28;20046;-75
2021/04/30 05:42:51;;;;;;;16.08;11.00;;;;;;;13.43;76.24;100467.06;5027767;28;20038;-72
2021/04/30 05:45:17;;;;;;;16.08;10.55;;;;;;;14.02;76.50;100568.84;5012705;28;20499;-71
2021/04/30 05:47:43;;;;;;;17.20;10.70;;;;;;;14.15;76.19;100568.25;5003606;28;20030;-70
2021/04/30 05:50:09;;;;;;;15.70;10.75;;;;;;;14.30;75.98;100567.75;5009935;28;20030;-73
2021/04/30 05:52:35;;;;;;;20.15;11.20;;;;;;;14.56;74.71;100573.53;4998341;28;20027;-73
2021/04/30 05:55:01;;;;;;;13.23;10.13;;;;;;;14.53;75.33;100580.41;4994554;28;20110;-74
2021/04/30 05:57:26;;;;;;;16.40;11.38;;;;;;;14.63;75.24;100571.97;4993379;28;20030;-74
2021/04/30 05:59:52;;;;;;;17.23;10.80;;;;;;;14.79;74.79;100583.63;4994436;28;20117;-74
2021/04/30 06:02:17;;;;;;;16.35;10.63;;;;;;;14.76;74.97;100580.94;4994362;28;20038;-73
2021/04/30 06:04:43;;;;;;;21.17;11.48;;;;;;;14.94;74.09;100572.66;4994524;28;20079;-70
2021/04/30 06:07:08;;;;;;;14.63;10.68;;;;;;;15.13;74.17;100560.91;4994358;28;20030;-73
2021/04/30 06:09:34;;;;;;;19.08;11.73;;;;;;;15.14;73.23;100575.66;4993311;28;20500;-76
2021/04/30 06:11:59;;;;;;;38.15;12.65;;;;;;;15.13;73.96;100575.63;4994622;28;20086;-73
2021/04/30 06:14:30;;;;;;;21.35;11.40;;;;;;;14.97;73.38;100528.50;4994461;28;20030;-73
2021/04/30 06:16:58;;;;;;;18.52;12.13;;;;;;;15.41;73.60;100563.16;4993265;28;20030;-73
2021/04/30 06:19:24;;;;;;;19.23;11.80;;;;;;;15.41;73.35;100564.00;4994020;28;20381;-73
2021/04/30 06:21:50;;;;;;;20.98;11.75;;;;;;;15.46;72.41;100572.78;4994378;28;20038;-73
2021/04/30 06:24:15;;;;;;;15.20;11.55;;;;;;;15.49;72.71;100564.19;4994375;28;20485;-75
2021/04/30 06:26:41;;;;;;;18.00;12.13;;;;;;;15.52;72.80;100569.44;4994429;28;20034;-73
2021/04/30 06:29:08;;;;;;;22.95;12.70;;;;;;;15.56;73.01;100576.44;4994002;28;20022;-73
2021/04/30 06:31:33;;;;;;;22.35;12.05;;;;;;;15.58;73.84;100587.75;4993939;28;20386;-72
2021/04/30 06:33:59;;;;;;;17.20;11.95;;;;;;;15.72;73.14;100584.53;4994207;28;20030;-73
2021/04/30 06:36:24;;;;;;;16.17;11.65;;;;;;;15.82;73.38;100573.44;4992753;28;20496;-73
2021/04/30 06:38:50;;;;;;;19.63;11.80;;;;;;;15.68;72.69;100524.59;5011347;28;20056;-73
2021/04/30 06:41:15;;;;;;;14.80;10.80;;;;;;;15.96;71.94;100576.28;5013046;28;20021;-73
2021/04/30 06:43:41;;;;;;;19.27;11.07;;;;;;;16.00;72.52;100572.91;5013332;28;20145;-70
2021/04/30 06:46:06;;;;;;;16.25;10.77;;;;;;;16.03;72.21;100574.69;5013442;28;20033;-71
2021/04/30 06:48:32;;;;;;;15.63;11.88;;;;;;;15.97;73.01;100573.69;5012855;28;20041;-71
2021/04/30 06:50:57;;;;;;;18.80;11.70;;;;;;;16.14;71.65;100580.94;5013004;28;20033;-74
2021/04/30 06:53:23;;;;;;;20.52;12.15;;;;;;;16.28;71.87;100575.94;5013182;28;20038;-72
2021/04/30 06:55:48;;;;;;;24.90;12.50;;;;;;;16.29;71.12;100565.53;5013239;28;20502;-72
2021/04/30 06:58:14;;;;;;;21.45;12.35;;;;;;;16.44;71.03;100564.88;5013026;28;20416;-73
2021/04/30 07:00:39;;;;;;;18.98;11.98;;;;;;;16.42;70.67;100557.91;5012958;28;20103;-78
2021/04/30 07:03:05;;;;;;;17.02;12.27;;;;;;;16.44;69.65;100536.22;5012853;28;20026;-78
2021/04/30 07:05:30;;;;;;;19.88;12.05;;;;;;;16.42;70.75;100517.06;5012819;28;20037;-72
2021/04/30 07:08:00;;;;;;;19.55;13.02;;;;;;;16.75;70.05;100554.00;5013049;28;20028;-74
2021/04/30 07:10:26;;;;;;;16.75;12.52;;;;;;;16.95;69.24;100564.72;5013030;28;20037;-75
2021/04/30 07:12:51;;;;;;;20.48;12.52;;;;;;;17.03;69.52;100559.59;5012774;28;20029;-73
2021/04/30 07:15:17;;;;;;;16.05;11.88;;;;;;;16.94;68.58;100510.81;5013212;28;20061;-74
2021/04/30 07:17:44;;;;;;;36.35;20.80;;;;;;;17.24;68.18;100558.97;5012695;28;20084;-74
2021/04/30 07:20:10;;;;;;;18.33;13.40;;;;;;;17.27;67.91;100557.25;5012723;28;20032;-73
2021/04/30 07:22:36;;;;;;;23.92;12.63;;;;;;;17.23;67.84;100552.00;5012865;28;20029;-73
2021/04/30 07:25:02;;;;;;;18.27;13.77;;;;;;;17.37;68.58;100570.41;4994990;28;20030;-73
2021/04/30 07:27:27;;;;;;;32.17;13.50;;;;;;;17.45;68.17;100556.56;5012509;28;20034;-76
2021/04/30 07:29:53;;;;;;;22.55;13.35;;;;;;;17.58;67.63;100557.59;5011357;28;20032;-74
2021/04/30 07:32:18;;;;;;;16.63;13.60;;;;;;;17.68;68.08;100534.16;5012490;28;20108;-73
2021/04/30 07:34:44;;;;;;;18.67;13.38;;;;;;;17.78;67.71;100535.97;5012588;28;20030;-72
2021/04/30 07:37:10;;;;;;;19.58;12.65;;;;;;;17.52;68.07;100500.09;5012268;28;20029;-76
2021/04/30 07:39:35;;;;;;;21.58;13.82;;;;;;;17.77;68.01;100514.22;5012556;28;20030;-73
2021/04/30 07:42:02;;;;;;;18.08;13.05;;;;;;;18.07;67.25;100519.72;5012227;28;20030;-74
2021/04/30 07:44:27;;;;;;;21.02;13.73;;;;;;;17.57;68.59;100477.50;5012371;28;20087;-75
2021/04/30 07:46:53;;;;;;;18.70;13.45;;;;;;;17.96;67.90;100522.25;5012027;28;20116;-74
2021/04/30 07:49:18;;;;;;;22.25;14.57;;;;;;;17.94;66.96;100537.00;5012250;28;20034;-73
2021/04/30 07:51:44;;;;;;;24.08;13.80;;;;;;;18.02;66.72;100526.63;5011015;28;20033;-72
2021/04/30 07:54:11;;;;;;;21.52;13.15;;;;;;;18.21;66.57;100523.28;5011312;28;20028;-74
2021/04/30 07:56:36;;;;;;;19.15;13.35;;;;;;;18.35;66.26;100520.75;5012323;28;20058;-72
2021/04/30 07:59:03;;;;;;;19.70;12.48;;;;;;;18.58;65.04;100515.63;5012516;28;20062;-74
2021/04/30 08:01:29;;;;;;;19.95;13.57;;;;;;;18.75;64.08;100514.84;5012357;28;20450;-74
2021/04/30 08:03:55;;;;;;;17.77;13.30;;;;;;;18.73;64.92;100527.06;5010733;28;20026;-72
2021/04/30 08:06:20;;;;;;;26.05;14.40;;;;;;;19.07;64.13;100524.56;5012140;28;20080;-72
2021/04/30 08:11:30;;;;;;;20.02;12.57;;;;;;;19.23;63.57;100513.25;5011955;28;20069;-75
2021/04/30 08:13:55;;;;;;;18.75;11.90;;;;;;;19.43;63.27;100511.53;5011856;28;20057;-73
2021/04/30 08:16:21;;;;;;;19.58;13.40;;;;;;;19.51;62.76;100521.16;5011718;28;20030;-74
2021/04/30 08:18:49;;;;;;;21.70;12.48;;;;;;;19.55;61.93;100519.41;5012071;28;20030;-77
2021/04/30 08:21:15;;;;;;;23.45;12.00;;;;;;;19.69;61.12;100525.53;5011927;28;20022;-75
2021/04/30 08:23:40;;;;;;;14.25;9.10;;;;;;;19.51;61.27;100528.16;5011277;28;20444;-75
2021/04/30 08:26:06;;;;;;;13.63;8.20;;;;;;;19.22;60.94;100514.13;5011146;28;20022;-73
2021/04/30 08:28:32;;;;;;;15.20;8.90;;;;;;;19.34;61.72;100521.16;5010885;28;20034;-75
2021/04/30 08:30:57;;;;;;;16.70;9.13;;;;;;;19.58;61.55;100521.16;5011539;28;20412;-78
2021/04/30 08:33:26;;;;;;;20.45;8.98;;;;;;;19.84;60.88;100529.94;5009658;28;20034;-73
2021/04/30 08:35:52;;;;;;;162.43;77.38;;;;;;;19.93;62.03;100523.81;5026143;28;20041;-72
2021/04/30 08:38:18;;;;;;;17.23;9.52;;;;;;;20.09;60.29;100542.13;5009688;28;20026;-78
2021/04/30 08:40:43;;;;;;;14.98;9.00;;;;;;;20.23;59.75;100535.13;5011246;28;20041;-72
2021/04/30 08:43:09;;;;;;;14.32;8.45;;;;;;;20.20;58.69;100491.47;5011520;28;20424;-72
2021/04/30 08:45:39;;;;;;;14.98;8.57;;;;;;;20.35;58.82;100487.06;5011252;28;20026;-71
2021/04/30 08:48:09;;;;;;;17.92;8.63;;;;;;;20.73;58.60;100517.53;5011294;28;20143;-77
2021/04/30 08:50:35;;;;;;;83.88;44.40;;;;;;;20.62;59.41;100493.06;5011822;28;20084;-73
2021/04/30 08:53:03;;;;;;;15.20;8.63;;;;;;;20.89;58.16;100523.59;5011580;28;20030;-71
2021/04/30 08:55:29;;;;;;;15.93;8.20;;;;;;;20.91;58.10;100506.09;5011497;28;20022;-74
2021/04/30 08:57:55;;;;;;;13.43;9.60;;;;;;;20.98;60.29;100505.16;5011331;28;20034;-73
2021/04/30 09:00:24;;;;;;;17.98;10.68;;;;;;;20.80;60.51;100500.88;5011841;28;20033;-72
2021/04/30 09:02:50;;;;;;;15.73;9.60;;;;;;;21.04;59.31;100511.28;5011549;28;20038;-74
2021/04/30 09:05:25;;;;;;;17.27;9.68;;;;;;;21.17;59.66;100510.31;5014443;28;20272;-74
2021/04/30 09:07:55;;;;;;;15.30;9.57;;;;;;;21.25;58.05;100510.28;5013644;28;20398;-75
2021/04/30 09:10:22;;;;;;;18.77;10.43;;;;;;;21.38;60.40;100504.03;5014036;28;20025;-74
2021/04/30 09:13:11;;;;;;;15.82;9.35;;;;;;;21.68;58.65;100503.84;5014063;28;20025;-75
2021/04/30 09:15:39;;;;;;;14.20;9.05;;;;;;;21.88;56.87;100487.91;5010387;28;20117;-74
2021/04/30 09:18:25;;;;;;;18.00;10.00;;;;;;;22.20;57.49;100497.25;5013248;28;20026;-75
2021/04/30 09:20:53;;;;;;;18.75;8.52;;;;;;;22.37;56.47;100489.13;5013361;28;20038;-74
2021/04/30 09:23:44;;;;;;;13.52;8.38;;;;;;;22.53;55.14;100503.03;5014449;28;20025;-75
2021/04/30 09:26:25;;;;;;;14.77;8.57;;;;;;;22.24;55.48;100509.47;5013349;28;20719;-75
2021/04/30 09:29:09;;;;;;;11.45;8.00;;;;;;;22.48;57.05;100499.56;5013891;28;20037;-74
2021/04/30 09:31:44;;;;;;;16.15;8.73;;;;;;;22.57;54.34;100478.44;5014121;28;20108;-75
2021/04/30 09:34:37;;;;;;;15.60;9.25;;;;;;;22.58;57.45;100490.69;5010361;28;20100;-75
2021/04/30 09:37:10;;;;;;;17.63;11.25;;;;;;;22.59;58.08;100488.06;5010582;28;20038;-74
2021/04/30 09:39:54;;;;;;;17.15;9.07;;;;;;;22.83;55.94;100471.94;5013466;28;20488;-75
2021/04/30 09:42:23;;;;;;;19.88;8.85;;;;;;;23.00;54.86;100477.84;5016265;28;20157;-75
2021/04/30 09:44:52;;;;;;;14.18;7.70;;;;;;;23.31;54.61;100471.28;5009396;28;20076;-73
2021/04/30 09:47:26;;;;;;;14.95;8.50;;;;;;;23.36;53.25;100469.44;5013024;28;20034;-75
2021/04/30 09:49:57;;;;;;;14.63;8.63;;;;;;;23.41;52.86;100468.50;5009817;28;20068;-74
2021/04/30 09:52:25;;;;;;;13.55;8.50;;;;;;;23.53;52.90;100470.03;5010910;28;20033;-76
2021/04/30 09:54:51;;;;;;;15.75;8.07;;;;;;;23.68;52.06;100458.38;5011012;28;20049;-77
2021/04/30 09:57:25;;;;;;;14.52;9.50;;;;;;;23.90;52.49;100465.88;4999639;28;20065;-76
2021/04/30 10:00:08;;;;;;;15.27;8.85;;;;;;;24.11;52.25;100463.78;4993696;28;20088;-74
2021/04/30 10:02:35;;;;;;;14.35;8.32;;;;;;;24.01;50.39;100426.16;5009720;28;20040;-76
2021/04/30 10:05:13;;;;;;;16.48;8.57;;;;;;;24.38;50.67;100457.09;5010192;28;20124;-76
2021/04/30 10:07:41;;;;;;;12.15;7.85;;;;;;;24.61;49.46;100464.53;4991623;28;20084;-74
2021/04/30 10:10:22;;;;;;;13.90;8.13;;;;;;;24.58;50.72;100443.47;5010952;28;20068;-74
2021/04/30 10:12:52;;;;;;;15.05;7.30;;;;;;;24.66;50.34;100449.50;5007731;28;20113;-74
2021/04/30 10:15:19;;;;;;;14.27;7.32;;;;;;;24.87;49.96;100449.91;5002699;28;20018;-75
2021/04/30 10:17:46;;;;;;;14.85;7.68;;;;;;;24.98;48.56;100453.16;5003795;28;20469;-74
2021/04/30 10:20:12;;;;;;;13.48;6.82;;;;;;;25.03;48.17;100445.13;5001544;28;20037;-75
2021/04/30 10:22:42;;;;;;;13.32;6.97;;;;;;;24.94;49.67;100446.22;5013559;28;20065;-76
2021/04/30 10:25:10;;;;;;;14.57;6.38;;;;;;;25.14;46.64;100402.63;5010317;28;20030;-76
2021/04/30 10:27:43;;;;;;;15.30;5.90;;;;;;;25.49;45.92;100443.19;5001271;28;20053;-78
2021/04/30 10:30:15;;;;;;;10.85;6.32;;;;;;;25.67;46.95;100436.53;5004108;28;20022;-76
2021/04/30 10:32:47;;;;;;;21.60;6.72;;;;;;;25.73;45.42;100432.88;4996195;28;20120;-76
2021/04/30 10:35:16;;;;;;;39.15;7.50;;;;;;;25.67;45.39;100391.59;4993502;28;20030;-77
2021/04/30 10:37:44;;;;;;;13.52;5.25;;;;;;;26.08;43.82;100420.47;5012395;28;20034;-76
2021/04/30 10:40:13;;;;;;;15.80;5.43;;;;;;;26.22;44.72;100422.72;5012955;28;20033;-76
2021/04/30 10:42:44;;;;;;;13.38;5.13;;;;;;;26.15;47.07;100422.06;5012590;28;20045;-74
2021/04/30 10:45:16;;;;;;;10.10;5.63;;;;;;;25.76;46.96;100412.50;5006220;28;20105;-76
2021/04/30 10:47:42;;;;;;;11.95;5.20;;;;;;;25.49;46.38;100407.03;5003393;28;20401;-75
2021/04/30 10:50:10;;;;;;;12.27;5.05;;;;;;;25.63;43.18;100380.25;5005308;28;20118;-73
2021/04/30 10:52:36;;;;;;;13.48;5.63;;;;;;;26.06;42.73;100415.25;5009553;28;20032;-73
2021/04/30 10:55:06;;;;;;;11.93;5.07;;;;;;;26.18;42.74;100406.06;5012573;28;20038;-77
2021/04/30 10:57:57;;;;;;;13.63;5.10;;;;;;;26.37;41.04;100406.41;5012751;28;20037;-75
2021/04/30 11:00:37;;;;;;;10.98;4.85;;;;;;;26.19;40.03;100364.63;5002713;28;20049;-73
2021/04/30 11:06:25;;;;;;;13.85;4.07;;;;;;;27.03;38.96;100405.28;5236637;23;20589;-76
2021/04/30 11:08:55;;;;;;;9.00;4.20;;;;;;;27.24;38.56;100403.72;5011402;28;20419;-77
2021/04/30 11:11:37;;;;;;;16.88;6.07;;;;;;;27.36;39.62;100399.78;5021183;28;20475;-77
2021/04/30 11:14:18;;;;;;;18.98;5.10;;;;;;;27.40;39.07;100393.50;5015457;28;20033;-77
2021/04/30 11:16:48;;;;;;;10.50;4.07;;;;;;;26.89;39.50;100377.50;5012158;28;20488;-77
2021/04/30 11:19:15;;;;;;;11.90;5.18;;;;;;;26.94;40.64;100399.41;5012354;28;20104;-77